sensor_id;sensor_type;location;lat;lon;timestamp;pressure;altitude;pressure_sealevel;temperature;humidity
74631;BME280;63138;55.082;38.804;2024-01-30T00:00:55;101040.31;;;-2.95;100.00
74631;BME280;63138;55.082;38.804;2024-01-30T00:03:21;101069.47;;;-2.94;100.00
74631;BME280;63138;55.082;38.804;2024-01-30T00:05:48;101080.19;;;-2.95;100.00
74631;BME280;63138;55.082;38.804;2024-01-30T00:08:14;101067.69;;;-2.93;100.00
74631;BME280;63138;55.082;38.804;2024-01-30T00:10:40;101071.19;;;-2.93;100.00
74631;BME280;63138;55.082;38.804;2024-01-30T00:13:06;101071.25;;;-2.94;100.00
74631;BME280;63138;55.082;38.804;2024-01-30T00:15:32;101067.53;;;-2.90;100.00
74631;BME280;63138;55.082;38.804;2024-01-30T00:17:58;101078.25;;;-2.92;100.00
74631;BME280;63138;55.082;38.804;2024-01-30T00:20:26;101079.06;;;-2.90;100.00
74631;BME280;63138;55.082;38.804;2024-01-30T00:22:52;101069.34;;;-2.91;100.00
74631;BME280;63138;55.082;38.804;2024-01-30T00:25:20;101057.78;;;-2.90;100.00
74631;BME280;63138;55.082;38.804;2024-01-30T00:27:47;101051.59;;;-2.90;100.00
74631;BME280;63138;55.082;38.804;2024-01-30T00:30:13;101052.47;;;-2.90;100.00
74631;BME280;63138;55.082;38.804;2024-01-30T00:32:39;101037.50;;;-2.92;100.00
74631;BME280;63138;55.082;38.804;2024-01-30T00:35:06;101025.00;;;-2.90;100.00
74631;BME280;63138;55.082;38.804;2024-01-30T00:37:32;101030.19;;;-2.87;100.00
74631;BME280;63138;55.082;38.804;2024-01-30T00:39:58;101012.53;;;-2.88;100.00
74631;BME280;63138;55.082;38.804;2024-01-30T00:42:23;101004.63;;;-2.90;100.00
74631;BME280;63138;55.082;38.804;2024-01-30T00:44:50;100987.78;;;-2.90;100.00
74631;BME280;63138;55.082;38.804;2024-01-30T00:47:16;100963.88;;;-2.90;100.00
74631;BME280;63138;55.082;38.804;2024-01-30T00:49:41;100963.88;;;-2.90;100.00
74631;BME280;63138;55.082;38.804;2024-01-30T00:52:08;100985.97;;;-2.88;100.00
74631;BME280;63138;55.082;38.804;2024-01-30T00:54:33;100986.06;;;-2.91;100.00
74631;BME280;63138;55.082;38.804;2024-01-30T00:56:59;100988.63;;;-2.88;100.00
74631;BME280;63138;55.082;38.804;2024-01-30T00:59:25;100982.34;;;-2.87;100.00
74631;BME280;63138;55.082;38.804;2024-01-30T01:01:51;100976.06;;;-2.84;100.00
74631;BME280;63138;55.082;38.804;2024-01-30T01:04:17;100970.75;;;-2.84;100.00
74631;BME280;63138;55.082;38.804;2024-01-30T01:06:44;100982.22;;;-2.84;100.00
74631;BME280;63138;55.082;38.804;2024-01-30T01:09:13;100982.47;;;-2.90;100.00
74631;BME280;63138;55.082;38.804;2024-01-30T01:11:39;100976.34;;;-2.92;100.00
74631;BME280;63138;55.082;38.804;2024-01-30T01:14:05;100985.00;;;-2.87;100.00
74631;BME280;63138;55.082;38.804;2024-01-30T01:16:31;100987.66;;;-2.87;100.00
74631;BME280;63138;55.082;38.804;2024-01-30T01:18:57;100975.31;;;-2.88;100.00
74631;BME280;63138;55.082;38.804;2024-01-30T01:21:23;100961.09;;;-2.87;100.00
74631;BME280;63138;55.082;38.804;2024-01-30T01:23:49;100964.69;;;-2.88;100.00
74631;BME280;63138;55.082;38.804;2024-01-30T01:26:15;100988.53;;;-2.86;100.00
74631;BME280;63138;55.082;38.804;2024-01-30T01:28:41;100984.09;;;-2.86;100.00
74631;BME280;63138;55.082;38.804;2024-01-30T01:31:07;100968.94;;;-2.84;100.00
74631;BME280;63138;55.082;38.804;2024-01-30T01:33:34;100975.09;;;-2.83;100.00
74631;BME280;63138;55.082;38.804;2024-01-30T01:36:00;100964.41;;;-2.82;100.00
74631;BME280;63138;55.082;38.804;2024-01-30T01:38:28;100972.38;;;-2.82;100.00
74631;BME280;63138;55.082;38.804;2024-01-30T01:40:54;100973.25;;;-2.81;100.00
74631;BME280;63138;55.082;38.804;2024-01-30T01:43:20;100972.44;;;-2.83;100.00
74631;BME280;63138;55.082;38.804;2024-01-30T01:45:46;100963.41;;;-2.79;100.00
74631;BME280;63138;55.082;38.804;2024-01-30T01:48:12;100966.16;;;-2.81;100.00
74631;BME280;63138;55.082;38.804;2024-01-30T01:50:57;100961.63;;;-2.79;100.00
74631;BME280;63138;55.082;38.804;2024-01-30T01:53:24;100967.88;;;-2.80;100.00
74631;BME280;63138;55.082;38.804;2024-01-30T01:55:50;100963.56;;;-2.82;100.00
74631;BME280;63138;55.082;38.804;2024-01-30T01:58:19;100970.41;;;-2.77;100.00
74631;BME280;63138;55.082;38.804;2024-01-30T02:00:48;100967.75;;;-2.77;100.00
74631;BME280;63138;55.082;38.804;2024-01-30T02:03:15;100971.19;;;-2.75;100.00
74631;BME280;63138;55.082;38.804;2024-01-30T02:05:43;100957.97;;;-2.76;100.00
74631;BME280;63138;55.082;38.804;2024-01-30T02:08:09;100956.97;;;-2.74;100.00
74631;BME280;63138;55.082;38.804;2024-01-30T02:10:35;100964.13;;;-2.76;100.00
74631;BME280;63138;55.082;38.804;2024-01-30T02:13:01;100962.38;;;-2.75;100.00
74631;BME280;63138;55.082;38.804;2024-01-30T02:15:28;100951.84;;;-2.78;100.00
74631;BME280;63138;55.082;38.804;2024-01-30T02:17:55;100964.13;;;-2.76;100.00
74631;BME280;63138;55.082;38.804;2024-01-30T02:20:41;100956.16;;;-2.76;100.00
74631;BME280;63138;55.082;38.804;2024-01-30T02:23:09;100947.53;;;-2.81;100.00
74631;BME280;63138;55.082;38.804;2024-01-30T02:25:40;100941.41;;;-2.83;100.00
74631;BME280;63138;55.082;38.804;2024-01-30T02:28:15;100944.16;;;-2.84;100.00
74631;BME280;63138;55.082;38.804;2024-01-30T02:30:44;100938.84;;;-2.84;100.00
74631;BME280;63138;55.082;38.804;2024-01-30T02:33:10;100937.94;;;-2.85;100.00
74631;BME280;63138;55.082;38.804;2024-01-30T02:35:36;100939.81;;;-2.87;100.00
74631;BME280;63138;55.082;38.804;2024-01-30T02:38:02;100941.63;;;-2.88;100.00
74631;BME280;63138;55.082;38.804;2024-01-30T02:40:28;100931.84;;;-2.87;100.00
74631;BME280;63138;55.082;38.804;2024-01-30T02:42:55;100942.47;;;-2.87;100.00
74631;BME280;63138;55.082;38.804;2024-01-30T02:45:22;100931.06;;;-2.89;100.00
74631;BME280;63138;55.082;38.804;2024-01-30T02:47:48;100925.84;;;-2.92;100.00
74631;BME280;63138;55.082;38.804;2024-01-30T02:50:13;100927.59;;;-2.91;100.00
74631;BME280;63138;55.082;38.804;2024-01-30T02:52:40;100937.38;;;-2.92;100.00
74631;BME280;63138;55.082;38.804;2024-01-30T02:55:07;100932.84;;;-2.90;100.00
74631;BME280;63138;55.082;38.804;2024-01-30T02:57:33;100932.84;;;-2.90;100.00
74631;BME280;63138;55.082;38.804;2024-01-30T02:59:59;100924.00;;;-2.90;100.00
74631;BME280;63138;55.082;38.804;2024-01-30T03:02:25;100934.63;;;-2.90;100.00
74631;BME280;63138;55.082;38.804;2024-01-30T03:04:51;100940.03;;;-2.92;100.00
74631;BME280;63138;55.082;38.804;2024-01-30T03:07:17;100941.00;;;-2.94;100.00
74631;BME280;63138;55.082;38.804;2024-01-30T03:09:43;100940.94;;;-2.93;100.00
74631;BME280;63138;55.082;38.804;2024-01-30T03:12:10;100949.72;;;-2.91;100.00
74631;BME280;63138;55.082;38.804;2024-01-30T03:14:36;100955.03;;;-2.91;100.00
74631;BME280;63138;55.082;38.804;2024-01-30T03:17:02;100956.84;;;-2.91;100.00
74631;BME280;63138;55.082;38.804;2024-01-30T03:19:28;100953.31;;;-2.92;100.00
74631;BME280;63138;55.082;38.804;2024-01-30T03:21:54;100953.38;;;-2.93;100.00
74631;BME280;63138;55.082;38.804;2024-01-30T03:24:20;100951.47;;;-2.90;100.00
74631;BME280;63138;55.082;38.804;2024-01-30T03:26:47;100947.78;;;-2.87;100.00
74631;BME280;63138;55.082;38.804;2024-01-30T03:29:13;100944.16;;;-2.84;100.00
74631;BME280;63138;55.082;38.804;2024-01-30T03:31:39;100937.75;;;-2.80;100.00
74631;BME280;63138;55.082;38.804;2024-01-30T03:34:05;100934.09;;;-2.78;100.00
74631;BME280;63138;55.082;38.804;2024-01-30T03:36:31;100946.47;;;-2.77;100.00
74631;BME280;63138;55.082;38.804;2024-01-30T03:38:59;100938.38;;;-2.74;100.00
74631;BME280;63138;55.082;38.804;2024-01-30T03:41:25;100922.41;;;-2.74;100.00
74631;BME280;63138;55.082;38.804;2024-01-30T03:43:51;100936.22;;;-2.65;100.00
74631;BME280;63138;55.082;38.804;2024-01-30T03:46:17;100943.22;;;-2.63;100.00
74631;BME280;63138;55.082;38.804;2024-01-30T03:48:43;100931.56;;;-2.60;100.00
74631;BME280;63138;55.082;38.804;2024-01-30T03:51:09;100932.28;;;-2.57;100.00
74631;BME280;63138;55.082;38.804;2024-01-30T03:53:41;100933.00;;;-2.53;100.00
74631;BME280;63138;55.082;38.804;2024-01-30T03:56:08;100945.38;;;-2.52;100.00
74631;BME280;63138;55.082;38.804;2024-01-30T03:58:34;100951.34;;;-2.47;100.00
74631;BME280;63138;55.082;38.804;2024-01-30T04:01:00;100953.03;;;-2.44;100.00
74631;BME280;63138;55.082;38.804;2024-01-30T04:03:26;100949.47;;;-2.45;100.00
74631;BME280;63138;55.082;38.804;2024-01-30T04:05:52;100945.91;;;-2.44;100.00
74631;BME280;63138;55.082;38.804;2024-01-30T04:08:19;100964.38;;;-2.41;100.00
74631;BME280;63138;55.082;38.804;2024-01-30T04:10:46;100968.69;;;-2.38;100.00
74631;BME280;63138;55.082;38.804;2024-01-30T04:13:12;100963.25;;;-2.35;100.00
74631;BME280;63138;55.082;38.804;2024-01-30T04:15:39;100967.56;;;-2.33;100.00
74631;BME280;63138;55.082;38.804;2024-01-30T04:18:05;100970.16;;;-2.31;100.00
74631;BME280;63138;55.082;38.804;2024-01-30T04:20:31;100969.06;;;-2.27;100.00
74631;BME280;63138;55.082;38.804;2024-01-30T04:22:58;100961.00;;;-2.25;100.00
74631;BME280;63138;55.082;38.804;2024-01-30T04:25:24;100965.28;;;-2.21;100.00
74631;BME280;63138;55.082;38.804;2024-01-30T04:27:50;100961.59;;;-2.19;100.00
74631;BME280;63138;55.082;38.804;2024-01-30T04:30:16;100947.28;;;-2.16;100.00
74631;BME280;63138;55.082;38.804;2024-01-30T04:32:42;100950.78;;;-2.14;100.00
74631;BME280;63138;55.082;38.804;2024-01-30T04:35:08;100944.50;;;-2.13;100.00
74631;BME280;63138;55.082;38.804;2024-01-30T04:37:35;100949.63;;;-2.08;100.00
74631;BME280;63138;55.082;38.804;2024-01-30T04:40:01;100948.59;;;-2.06;100.00
74631;BME280;63138;55.082;38.804;2024-01-30T04:42:29;100942.34;;;-2.05;100.00
74631;BME280;63138;55.082;38.804;2024-01-30T04:44:55;100955.50;;;-2.02;100.00
74631;BME280;63138;55.082;38.804;2024-01-30T04:47:21;100949.19;;;-1.99;100.00
74631;BME280;63138;55.082;38.804;2024-01-30T04:49:47;100953.50;;;-1.97;100.00
74631;BME280;63138;55.082;38.804;2024-01-30T04:52:12;100958.69;;;-1.94;100.00
74631;BME280;63138;55.082;38.804;2024-01-30T04:54:38;100955.22;;;-1.96;100.00
74631;BME280;63138;55.082;38.804;2024-01-30T04:57:05;100956.81;;;-1.92;100.00
74631;BME280;63138;55.082;38.804;2024-01-30T04:59:35;100970.91;;;-1.89;100.00
74631;BME280;63138;55.082;38.804;2024-01-30T05:02:02;100958.25;;;-1.84;100.00
74631;BME280;63138;55.082;38.804;2024-01-30T05:04:28;100964.34;;;-1.82;100.00
74631;BME280;63138;55.082;38.804;2024-01-30T05:06:54;100962.47;;;-1.80;100.00
74631;BME280;63138;55.082;38.804;2024-01-30T05:09:20;100954.41;;;-1.79;100.00
74631;BME280;63138;55.082;38.804;2024-01-30T05:11:46;100961.41;;;-1.76;100.00
74631;BME280;63138;55.082;38.804;2024-01-30T05:14:12;100961.25;;;-1.73;100.00
74631;BME280;63138;55.082;38.804;2024-01-30T05:16:40;100961.09;;;-1.70;100.00
74631;BME280;63138;55.082;38.804;2024-01-30T05:19:07;100950.38;;;-1.68;100.00
74631;BME280;63138;55.082;38.804;2024-01-30T05:21:33;100946.69;;;-1.66;100.00
74631;BME280;63138;55.082;38.804;2024-01-30T05:23:59;100951.09;;;-1.65;100.00
74631;BME280;63138;55.082;38.804;2024-01-30T05:26:25;100956.34;;;-1.63;100.00
74631;BME280;63138;55.082;38.804;2024-01-30T05:28:52;100951.88;;;-1.63;100.00
74631;BME280;63138;55.082;38.804;2024-01-30T05:31:18;100960.53;;;-1.58;100.00
74631;BME280;63138;55.082;38.804;2024-01-30T05:33:44;100959.34;;;-1.52;100.00
74631;BME280;63138;55.082;38.804;2024-01-30T05:36:12;100964.69;;;-1.52;100.00
74631;BME280;63138;55.082;38.804;2024-01-30T05:38:39;100975.13;;;-1.47;100.00
74631;BME280;63138;55.082;38.804;2024-01-30T05:41:05;100965.13;;;-1.42;100.00
74631;BME280;63138;55.082;38.804;2024-01-30T05:43:31;100962.34;;;-1.41;100.00
74631;BME280;63138;55.082;38.804;2024-01-30T05:45:57;100969.34;;;-1.38;100.00
74631;BME280;63138;55.082;38.804;2024-01-30T05:48:23;100972.81;;;-1.36;100.00
74631;BME280;63138;55.082;38.804;2024-01-30T05:50:49;100971.69;;;-1.32;100.00
74631;BME280;63138;55.082;38.804;2024-01-30T05:53:15;100982.34;;;-1.32;100.00
74631;BME280;63138;55.082;38.804;2024-01-30T05:55:41;100975.16;;;-1.30;100.00
74631;BME280;63138;55.082;38.804;2024-01-30T05:58:07;100983.94;;;-1.28;100.00
74631;BME280;63138;55.082;38.804;2024-01-30T06:00:33;100974.88;;;-1.24;100.00
74631;BME280;63138;55.082;38.804;2024-01-30T06:02:59;100981.91;;;-1.23;100.00
74631;BME280;63138;55.082;38.804;2024-01-30T06:05:25;100987.09;;;-1.20;100.00
74631;BME280;63138;55.082;38.804;2024-01-30T06:07:51;100997.75;;;-1.20;100.00
74631;BME280;63138;55.082;38.804;2024-01-30T06:10:17;101004.81;;;-1.19;100.00
74631;BME280;63138;55.082;38.804;2024-01-30T06:12:44;100990.53;;;-1.18;100.00
74631;BME280;63138;55.082;38.804;2024-01-30T06:15:11;100990.47;;;-1.16;100.00
74631;BME280;63138;55.082;38.804;2024-01-30T06:17:39;100994.63;;;-1.10;100.00
74631;BME280;63138;55.082;38.804;2024-01-30T06:20:05;100991.81;;;-1.07;100.00
74631;BME280;63138;55.082;38.804;2024-01-30T06:22:31;100988.19;;;-1.06;100.00
74631;BME280;63138;55.082;38.804;2024-01-30T06:24:57;100990.66;;;-1.02;100.00
74631;BME280;63138;55.082;38.804;2024-01-30T06:27:23;100996.69;;;-0.98;100.00
74631;BME280;63138;55.082;38.804;2024-01-30T06:29:51;101000.13;;;-0.96;100.00
74631;BME280;63138;55.082;38.804;2024-01-30T06:32:18;100998.97;;;-0.90;100.00
74631;BME280;63138;55.082;38.804;2024-01-30T06:34:45;100996.28;;;-0.90;100.00
74631;BME280;63138;55.082;38.804;2024-01-30T06:37:16;101000.56;;;-0.86;100.00
74631;BME280;63138;55.082;38.804;2024-01-30T06:39:42;100996.06;;;-0.86;100.00
74631;BME280;63138;55.082;38.804;2024-01-30T06:42:09;100999.66;;;-0.87;100.00
74631;BME280;63138;55.082;38.804;2024-01-30T06:44:36;100996.94;;;-0.85;100.00
74631;BME280;63138;55.082;38.804;2024-01-30T06:47:02;101002.25;;;-0.85;100.00
74631;BME280;63138;55.082;38.804;2024-01-30T06:49:28;100994.25;;;-0.85;100.00
74631;BME280;63138;55.082;38.804;2024-01-30T06:51:55;101002.81;;;-0.79;100.00
74631;BME280;63138;55.082;38.804;2024-01-30T06:54:24;101010.75;;;-0.77;100.00
74631;BME280;63138;55.082;38.804;2024-01-30T06:56:51;101007.91;;;-0.74;100.00
74631;BME280;63138;55.082;38.804;2024-01-30T06:59:18;101017.72;;;-0.74;100.00
74631;BME280;63138;55.082;38.804;2024-01-30T07:01:47;101000.59;;;-0.70;100.00
74631;BME280;63138;55.082;38.804;2024-01-30T07:04:13;101006.75;;;-0.68;100.00
74631;BME280;63138;55.082;38.804;2024-01-30T07:06:39;101001.09;;;-0.62;100.00
74631;BME280;63138;55.082;38.804;2024-01-30T07:09:05;101004.69;;;-0.63;100.00
74631;BME280;63138;55.082;38.804;2024-01-30T07:11:32;100989.56;;;-0.63;100.00
74631;BME280;63138;55.082;38.804;2024-01-30T07:13:58;100991.03;;;-0.57;100.00
74631;BME280;63138;55.082;38.804;2024-01-30T07:16:24;100991.59;;;-0.50;100.00
74631;BME280;63138;55.082;38.804;2024-01-30T07:18:51;101001.38;;;-0.51;100.00
74631;BME280;63138;55.082;38.804;2024-01-30T07:21:17;100995.03;;;-0.48;100.00
74631;BME280;63138;55.082;38.804;2024-01-30T07:23:43;101001.38;;;-0.51;100.00
74631;BME280;63138;55.082;38.804;2024-01-30T07:26:11;101002.97;;;-0.47;100.00
74631;BME280;63138;55.082;38.804;2024-01-30T07:28:37;101001.22;;;-0.48;100.00
74631;BME280;63138;55.082;38.804;2024-01-30T07:31:03;101009.88;;;-0.43;100.00
74631;BME280;63138;55.082;38.804;2024-01-30T07:33:30;101021.41;;;-0.42;100.00
74631;BME280;63138;55.082;38.804;2024-01-30T07:35:56;101016.75;;;-0.39;100.00
74631;BME280;63138;55.082;38.804;2024-01-30T07:38:23;101026.31;;;-0.34;100.00
74631;BME280;63138;55.082;38.804;2024-01-30T07:40:50;101028.53;;;-0.25;100.00
74631;BME280;63138;55.082;38.804;2024-01-30T07:43:16;101025.31;;;-0.14;100.00
74631;BME280;63138;55.082;38.804;2024-01-30T07:45:42;101019.53;;;-0.07;100.00
74631;BME280;63138;55.082;38.804;2024-01-30T07:48:08;101018.44;;;-0.03;100.00
74631;BME280;63138;55.082;38.804;2024-01-30T07:50:34;101005.50;;;-0.10;100.00
74631;BME280;63138;55.082;38.804;2024-01-30T07:53:00;101022.06;;;-0.04;100.00
74631;BME280;63138;55.082;38.804;2024-01-30T07:55:46;101008.09;;;-0.09;100.00
74631;BME280;63138;55.082;38.804;2024-01-30T07:58:38;101010.69;;;-0.07;100.00
74631;BME280;63138;55.082;38.804;2024-01-30T08:01:04;101005.00;;;-0.01;100.00
74631;BME280;63138;55.082;38.804;2024-01-30T08:03:30;101018.09;;;0.04;100.00
74631;BME280;63138;55.082;38.804;2024-01-30T08:06:15;101012.06;;;0.00;100.00
74631;BME280;63138;55.082;38.804;2024-01-30T08:08:41;101004.84;;;0.02;100.00
74631;BME280;63138;55.082;38.804;2024-01-30T08:11:07;101018.09;;;0.04;100.00
74631;BME280;63138;55.082;38.804;2024-01-30T08:13:34;101015.09;;;0.10;100.00
74631;BME280;63138;55.082;38.804;2024-01-30T08:16:02;101005.97;;;0.14;100.00
74631;BME280;63138;55.082;38.804;2024-01-30T08:18:28;101003.28;;;0.14;100.00
74631;BME280;63138;55.082;38.804;2024-01-30T08:20:54;100997.78;;;0.17;100.00
74631;BME280;63138;55.082;38.804;2024-01-30T08:23:20;100981.59;;;0.20;100.00
74631;BME280;63138;55.082;38.804;2024-01-30T08:25:46;100987.97;;;0.17;100.00
74631;BME280;63138;55.082;38.804;2024-01-30T08:28:15;100994.06;;;0.19;100.00
74631;BME280;63138;55.082;38.804;2024-01-30T08:30:41;101004.53;;;0.24;100.00
74631;BME280;63138;55.082;38.804;2024-01-30T08:33:07;100994.75;;;0.23;100.00
74631;BME280;63138;55.082;38.804;2024-01-30T08:35:33;101005.44;;;0.23;100.00
74631;BME280;63138;55.082;38.804;2024-01-30T08:38:00;101002.69;;;0.25;100.00
74631;BME280;63138;55.082;38.804;2024-01-30T08:40:26;100999.94;;;0.26;100.00
74631;BME280;63138;55.082;38.804;2024-01-30T08:42:53;100990.38;;;0.22;100.00
74631;BME280;63138;55.082;38.804;2024-01-30T08:45:19;100992.53;;;0.31;100.00
74631;BME280;63138;55.082;38.804;2024-01-30T08:47:45;100982.63;;;0.33;100.00
74631;BME280;63138;55.082;38.804;2024-01-30T08:50:11;100990.22;;;0.41;100.00
74631;BME280;63138;55.082;38.804;2024-01-30T08:52:38;100975.22;;;0.38;100.00
74631;BME280;63138;55.082;38.804;2024-01-30T08:55:05;100981.59;;;0.36;100.00
74631;BME280;63138;55.082;38.804;2024-01-30T08:57:31;100984.38;;;0.34;100.00
74631;BME280;63138;55.082;38.804;2024-01-30T08:59:57;100983.56;;;0.32;100.00
74631;BME280;63138;55.082;38.804;2024-01-30T09:02:23;100985.91;;;0.38;100.00
74631;BME280;63138;55.082;38.804;2024-01-30T09:04:52;100980.47;;;0.40;100.00
74631;BME280;63138;55.082;38.804;2024-01-30T09:07:18;100973.69;;;0.34;100.00
74631;BME280;63138;55.082;38.804;2024-01-30T09:09:44;100984.88;;;0.41;100.00
74631;BME280;63138;55.082;38.804;2024-01-30T09:12:10;100991.50;;;0.50;100.00
74631;BME280;63138;55.082;38.804;2024-01-30T09:14:39;100987.28;;;0.62;100.00
74631;BME280;63138;55.082;38.804;2024-01-30T09:17:05;100985.03;;;0.54;100.00
74631;BME280;63138;55.082;38.804;2024-01-30T09:19:31;100985.03;;;0.54;100.00
74631;BME280;63138;55.082;38.804;2024-01-30T09:21:57;100992.97;;;0.55;100.00
74631;BME280;63138;55.082;38.804;2024-01-30T09:24:23;100993.25;;;0.51;100.00
74631;BME280;63138;55.082;38.804;2024-01-30T09:26:49;100986.41;;;0.61;100.00
74631;BME280;63138;55.082;38.804;2024-01-30T09:29:15;100984.09;;;0.55;100.00
74631;BME280;63138;55.082;38.804;2024-01-30T09:31:47;100994.94;;;0.52;100.00
74631;BME280;63138;55.082;38.804;2024-01-30T09:34:14;100989.28;;;0.58;100.00
74631;BME280;63138;55.082;38.804;2024-01-30T09:36:41;100997.78;;;0.65;100.00
74631;BME280;63138;55.082;38.804;2024-01-30T09:39:08;100985.22;;;0.67;100.00
74631;BME280;63138;55.082;38.804;2024-01-30T09:41:48;100987.47;;;0.59;100.00
74631;BME280;63138;55.082;38.804;2024-01-30T09:44:16;100984.53;;;0.63;100.00
74631;BME280;63138;55.082;38.804;2024-01-30T09:46:43;100985.31;;;0.65;100.00
74631;BME280;63138;55.082;38.804;2024-01-30T09:49:12;100989.34;;;0.56;100.00
74631;BME280;63138;55.082;38.804;2024-01-30T09:51:40;100982.09;;;0.59;100.00
74631;BME280;63138;55.082;38.804;2024-01-30T09:54:08;100979.69;;;0.54;100.00
74631;BME280;63138;55.082;38.804;2024-01-30T09:56:35;100981.78;;;0.49;100.00
74631;BME280;63138;55.082;38.804;2024-01-30T09:59:01;100986.16;;;0.50;100.00
74631;BME280;63138;55.082;38.804;2024-01-30T10:01:28;100983.84;;;0.44;100.00
74631;BME280;63138;55.082;38.804;2024-01-30T10:03:55;100994.53;;;0.44;100.00
74631;BME280;63138;55.082;38.804;2024-01-30T10:06:47;100989.88;;;0.47;100.00
74631;BME280;63138;55.082;38.804;2024-01-30T10:09:14;100990.13;;;0.59;100.00
74631;BME280;63138;55.082;38.804;2024-01-30T10:11:40;100995.72;;;0.54;100.00
74631;BME280;63138;55.082;38.804;2024-01-30T10:14:06;100992.97;;;0.55;100.00
74631;BME280;63138;55.082;38.804;2024-01-30T10:16:34;100989.69;;;0.66;100.00
74631;BME280;63138;55.082;38.804;2024-01-30T10:19:00;100987.53;;;0.57;100.00
74631;BME280;63138;55.082;38.804;2024-01-30T10:21:26;100988.38;;;0.73;100.00
74631;BME280;63138;55.082;38.804;2024-01-30T10:23:52;100992.44;;;0.81;100.00
74631;BME280;63138;55.082;38.804;2024-01-30T10:26:20;100990.63;;;0.81;100.00
74631;BME280;63138;55.082;38.804;2024-01-30T10:28:47;100995.03;;;0.82;100.00
74631;BME280;63138;55.082;38.804;2024-01-30T10:31:17;100996.25;;;0.76;100.00
74631;BME280;63138;55.082;38.804;2024-01-30T10:33:50;100986.22;;;0.80;100.00
74631;BME280;63138;55.082;38.804;2024-01-30T10:36:40;100987.75;;;0.84;100.00
74631;BME280;63138;55.082;38.804;2024-01-30T10:39:09;100989.41;;;0.87;100.00
74631;BME280;63138;55.082;38.804;2024-01-30T10:41:47;100985.78;;;0.88;100.00
74631;BME280;63138;55.082;38.804;2024-01-30T10:44:18;100988.19;;;0.92;100.00
74631;BME280;63138;55.082;38.804;2024-01-30T10:46:51;100984.84;;;0.89;100.00
74631;BME280;63138;55.082;38.804;2024-01-30T10:49:23;100992.69;;;0.92;100.00
74631;BME280;63138;55.082;38.804;2024-01-30T10:51:51;100992.69;;;0.92;100.00
74631;BME280;63138;55.082;38.804;2024-01-30T10:54:20;100983.78;;;0.91;100.00
74631;BME280;63138;55.082;38.804;2024-01-30T10:56:46;100998.22;;;0.89;100.00
74631;BME280;63138;55.082;38.804;2024-01-30T10:59:13;100993.13;;;0.84;100.00
74631;BME280;63138;55.082;38.804;2024-01-30T11:01:40;100994.09;;;0.83;100.00
74631;BME280;63138;55.082;38.804;2024-01-30T11:04:07;100988.53;;;0.86;100.00
74631;BME280;63138;55.082;38.804;2024-01-30T11:06:41;100998.97;;;0.91;100.00
74631;BME280;63138;55.082;38.804;2024-01-30T11:09:11;100996.22;;;0.92;100.00
74631;BME280;63138;55.082;38.804;2024-01-30T11:11:51;100993.63;;;0.91;100.00
74631;BME280;63138;55.082;38.804;2024-01-30T11:14:23;101010.53;;;0.91;100.00
74631;BME280;63138;55.082;38.804;2024-01-30T11:16:58;101010.13;;;0.83;100.00
74631;BME280;63138;55.082;38.804;2024-01-30T11:19:27;101002.88;;;0.85;100.00
74631;BME280;63138;55.082;38.804;2024-01-30T11:21:53;100990.53;;;0.83;100.00
74631;BME280;63138;55.082;38.804;2024-01-30T11:24:25;100997.25;;;0.90;100.00
74631;BME280;63138;55.082;38.804;2024-01-30T11:27:02;100998.03;;;0.92;100.00
74631;BME280;63138;55.082;38.804;2024-01-30T11:29:34;100997.06;;;0.93;100.00
74631;BME280;63138;55.082;38.804;2024-01-30T11:32:01;100995.84;;;0.99;100.00
74631;BME280;63138;55.082;38.804;2024-01-30T11:34:30;101004.63;;;1.01;100.00
74631;BME280;63138;55.082;38.804;2024-01-30T11:37:03;100998.09;;;1.06;100.00
74631;BME280;63138;55.082;38.804;2024-01-30T11:39:34;101005.53;;;1.01;100.00
74631;BME280;63138;55.082;38.804;2024-01-30T11:42:06;100991.19;;;1.02;100.00
74631;BME280;63138;55.082;38.804;2024-01-30T11:44:34;101000.50;;;0.95;100.00
74631;BME280;63138;55.082;38.804;2024-01-30T11:47:25;101004.25;;;0.92;100.00
74631;BME280;63138;55.082;38.804;2024-01-30T11:49:51;100999.66;;;0.94;100.00
74631;BME280;63138;55.082;38.804;2024-01-30T11:52:17;100992.56;;;0.93;100.00
74631;BME280;63138;55.082;38.804;2024-01-30T11:54:43;100987.75;;;1.00;100.00
74631;BME280;63138;55.082;38.804;2024-01-30T11:57:09;100993.94;;;1.01;100.00
74631;BME280;63138;55.082;38.804;2024-01-30T11:59:36;100999.56;;;0.96;100.00
74631;BME280;63138;55.082;38.804;2024-01-30T12:02:02;100992.56;;;0.93;100.00
74631;BME280;63138;55.082;38.804;2024-01-30T12:04:29;101004.84;;;0.98;100.00
74631;BME280;63138;55.082;38.804;2024-01-30T12:06:56;100995.00;;;0.98;100.00
74631;BME280;63138;55.082;38.804;2024-01-30T12:09:23;101007.44;;;0.99;100.00
74631;BME280;63138;55.082;38.804;2024-01-30T12:11:49;101007.78;;;0.93;100.00
74631;BME280;63138;55.082;38.804;2024-01-30T12:14:18;100998.97;;;0.91;100.00
74631;BME280;63138;55.082;38.804;2024-01-30T12:16:48;101002.59;;;0.90;100.00
74631;BME280;63138;55.082;38.804;2024-01-30T12:19:23;101003.19;;;0.95;100.00
74631;BME280;63138;55.082;38.804;2024-01-30T12:21:57;101011.41;;;0.92;100.00
74631;BME280;63138;55.082;38.804;2024-01-30T12:24:28;101010.72;;;0.88;100.00
74631;BME280;63138;55.082;38.804;2024-01-30T12:26:59;101009.84;;;0.88;100.00
74631;BME280;63138;55.082;38.804;2024-01-30T12:29:26;101024.19;;;0.87;100.00
74631;BME280;63138;55.082;38.804;2024-01-30T12:31:53;101033.91;;;0.88;100.00
74631;BME280;63138;55.082;38.804;2024-01-30T12:34:21;101033.16;;;0.86;100.00